Scio, Ohio
Current Conditions -  °F | °C
As of 9:30 AM on Wednesday 28 Jan 2015 (Local Time) from KPHD Reporting Station
Few Clouds Few Clouds  
Wind Chill:   Ceiling: Unl
Heat Index: 13°   Visibility: 7mi
Dew Point:   Wind: 6mph
Humidity: 81%   Direction: 300°WNW
Pressure: 30.38"   Gusts: NA
Location:  40.4°N, 81.08°W
Report Text: KPHD 281430Z AUTO 30005KT 7SM FEW007 M11/M13 A3038 RMK AO2 T11061133
Loading
Personal Weather Stations






























Interactive Weather Map New forecast layout! Learn more

10-Day Weather Forecast

Advertisements
Track Severe Weather on mobile